createdAt,value
2018-05-12T00:00:17.946Z,1015.48
2018-05-12T00:01:17.943Z,1015.49
2018-05-12T00:02:17.955Z,1015.51
2018-05-12T00:03:17.933Z,1015.48
2018-05-12T00:04:17.935Z,1015.48
2018-05-12T00:05:17.950Z,1015.47
2018-05-12T00:06:17.930Z,1015.47
2018-05-12T00:07:17.928Z,1015.45
2018-05-12T00:08:17.927Z,1015.43
2018-05-12T00:09:17.927Z,1015.39
2018-05-12T00:10:17.924Z,1015.37
2018-05-12T00:11:17.917Z,1015.38
2018-05-12T00:12:17.914Z,1015.38
2018-05-12T00:13:17.912Z,1015.34
2018-05-12T00:14:17.915Z,1015.33
2018-05-12T00:15:17.905Z,1015.35
2018-05-12T00:16:17.903Z,1015.32
2018-05-12T00:17:17.901Z,1015.31
2018-05-12T00:18:17.897Z,1015.34
2018-05-12T00:19:17.894Z,1015.31
2018-05-12T00:20:17.893Z,1015.28
2018-05-12T00:21:17.888Z,1015.27
2018-05-12T00:22:17.886Z,1015.27
2018-05-12T00:23:17.884Z,1015.25
2018-05-12T00:24:17.879Z,1015.22
2018-05-12T00:25:17.878Z,1015.23
2018-05-12T00:26:17.877Z,1015.20
2018-05-12T00:27:17.873Z,1015.24
2018-05-12T00:28:17.872Z,1015.25
2018-05-12T00:29:17.866Z,1015.25
2018-05-12T00:30:17.865Z,1015.31
2018-05-12T00:31:17.860Z,1015.29
2018-05-12T00:32:17.859Z,1015.29
2018-05-12T00:33:17.858Z,1015.28
2018-05-12T00:34:17.852Z,1015.31
2018-05-12T00:35:17.849Z,1015.28
2018-05-12T00:36:17.844Z,1015.31
2018-05-12T00:37:17.843Z,1015.28
2018-05-12T00:38:17.846Z,1015.29
2018-05-12T00:39:17.836Z,1015.31
2018-05-12T00:40:17.838Z,1015.29
2018-05-12T00:41:17.832Z,1015.30
2018-05-12T00:42:17.830Z,1015.27
2018-05-12T00:43:17.826Z,1015.27
2018-05-12T00:44:17.823Z,1015.29
2018-05-12T00:45:17.823Z,1015.31
2018-05-12T00:46:17.817Z,1015.34
2018-05-12T00:47:17.814Z,1015.34
2018-05-12T00:48:17.817Z,1015.35
2018-05-12T00:49:17.809Z,1015.34
2018-05-12T00:50:17.808Z,1015.37
2018-05-12T00:51:17.803Z,1015.35
2018-05-12T00:52:17.799Z,1015.31
2018-05-12T00:53:17.797Z,1015.33
2018-05-12T00:54:17.794Z,1015.33
2018-05-12T00:55:17.791Z,1015.32
2018-05-12T00:56:17.803Z,1015.34
2018-05-12T00:57:17.790Z,1015.31
2018-05-12T00:58:17.783Z,1015.29
2018-05-12T00:59:17.779Z,1015.29
2018-05-12T01:00:17.776Z,1015.26
2018-05-12T01:01:17.778Z,1015.25
2018-05-12T01:02:17.772Z,1015.23
2018-05-12T01:03:17.769Z,1015.22
2018-05-12T01:04:17.764Z,1015.21
2018-05-12T01:05:17.761Z,1015.22
2018-05-12T01:06:17.759Z,1015.22
2018-05-12T01:07:17.755Z,1015.20
2018-05-12T01:08:17.755Z,1015.19
2018-05-12T01:09:17.758Z,1015.18
2018-05-12T01:10:17.747Z,1015.18
2018-05-12T01:11:17.743Z,1015.18
2018-05-12T01:12:17.741Z,1015.19
2018-05-12T01:13:17.737Z,1015.19
2018-05-12T01:14:17.743Z,1015.18
2018-05-12T01:15:17.733Z,1015.11
2018-05-12T01:16:17.730Z,1015.14
2018-05-12T01:17:17.728Z,1015.13
2018-05-12T01:18:17.762Z,1015.12
2018-05-12T01:19:17.719Z,1015.11
2018-05-12T01:20:17.716Z,1015.11
2018-05-12T01:21:17.714Z,1015.15
2018-05-12T01:22:17.709Z,1015.14
2018-05-12T01:23:17.711Z,1015.12
2018-05-12T01:24:17.710Z,1015.16
2018-05-12T01:25:17.703Z,1015.14
2018-05-12T01:26:17.701Z,1015.11
2018-05-12T01:27:17.695Z,1015.12
2018-05-12T01:28:17.693Z,1015.11
2018-05-12T01:29:17.735Z,1015.11
2018-05-12T01:30:17.686Z,1015.15
2018-05-12T01:31:17.682Z,1015.20
2018-05-12T01:32:17.679Z,1015.15
2018-05-12T01:33:17.683Z,1015.17
2018-05-12T01:34:17.674Z,1015.16
2018-05-12T01:35:17.676Z,1015.20
2018-05-12T01:36:17.667Z,1015.20
2018-05-12T01:37:17.667Z,1015.20
2018-05-12T01:38:17.663Z,1015.22
2018-05-12T01:39:17.659Z,1015.18
2018-05-12T01:40:17.659Z,1015.16
2018-05-12T01:41:17.653Z,1015.16
2018-05-12T01:42:17.648Z,1015.15
2018-05-12T01:43:17.645Z,1015.10
2018-05-12T01:44:17.643Z,1015.12
2018-05-12T01:45:17.644Z,1015.14
2018-05-12T01:46:17.638Z,1015.10
2018-05-12T01:47:17.633Z,1015.14
2018-05-12T01:48:17.630Z,1015.11
2018-05-12T01:49:17.629Z,1015.11
2018-05-12T01:50:17.624Z,1015.09
2018-05-12T01:51:17.627Z,1015.11
2018-05-12T01:52:17.618Z,1015.08
2018-05-12T01:53:17.620Z,1015.11
2018-05-12T01:54:17.612Z,1015.11
2018-05-12T01:55:17.605Z,1015.13
2018-05-12T01:56:17.605Z,1015.15
2018-05-12T01:57:17.601Z,1015.12
2018-05-12T01:58:17.603Z,1015.15
2018-05-12T01:59:17.600Z,1015.14
2018-05-12T02:00:17.591Z,1015.16
2018-05-12T02:01:17.589Z,1015.16
2018-05-12T02:02:17.587Z,1015.16
2018-05-12T02:03:17.587Z,1015.16
2018-05-12T02:04:17.581Z,1015.17
2018-05-12T02:05:17.575Z,1015.15
2018-05-12T02:06:17.573Z,1015.14
2018-05-12T02:07:17.574Z,1015.13
2018-05-12T02:08:17.570Z,1015.13
2018-05-12T02:09:17.564Z,1015.15
2018-05-12T02:10:17.565Z,1015.16
2018-05-12T02:11:17.556Z,1015.17
2018-05-12T02:12:17.555Z,1015.15
2018-05-12T02:13:17.550Z,1015.14
2018-05-12T02:14:17.548Z,1015.14
2018-05-12T02:15:17.548Z,1015.16
2018-05-12T02:16:17.539Z,1015.16
2018-05-12T02:17:17.537Z,1015.15
2018-05-12T02:18:17.539Z,1015.16
2018-05-12T02:19:17.529Z,1015.18
2018-05-12T02:20:17.528Z,1015.19
2018-05-12T02:21:17.524Z,1015.19
2018-05-12T02:22:17.525Z,1015.19
2018-05-12T02:23:17.517Z,1015.18
2018-05-12T02:24:17.512Z,1015.18
2018-05-12T02:25:17.512Z,1015.22
2018-05-12T02:26:17.509Z,1015.21
2018-05-12T02:27:17.502Z,1015.25
2018-05-12T02:28:17.500Z,1015.26
2018-05-12T02:29:17.497Z,1015.28
2018-05-12T02:30:17.510Z,1015.25
2018-05-12T02:31:17.491Z,1015.26
2018-05-12T02:32:17.490Z,1015.27
2018-05-12T02:33:17.485Z,1015.25
2018-05-12T02:34:17.483Z,1015.25
2018-05-12T02:35:17.478Z,1015.22
2018-05-12T02:36:17.475Z,1015.24
2018-05-12T02:37:17.470Z,1015.28
2018-05-12T02:38:17.471Z,1015.27
2018-05-12T02:39:17.462Z,1015.27
2018-05-12T02:40:17.461Z,1015.26
2018-05-12T02:41:17.460Z,1015.27
2018-05-12T02:42:17.481Z,1015.30
2018-05-12T02:43:17.450Z,1015.27
2018-05-12T02:44:17.447Z,1015.27
2018-05-12T02:45:17.445Z,1015.30
2018-05-12T02:46:17.442Z,1015.26
2018-05-12T02:47:17.440Z,1015.30
2018-05-12T02:48:17.440Z,1015.27
2018-05-12T02:49:17.433Z,1015.29
2018-05-12T02:50:17.430Z,1015.31
2018-05-12T02:51:17.425Z,1015.28
2018-05-12T02:52:17.420Z,1015.30
2018-05-12T02:53:17.417Z,1015.28
2018-05-12T02:54:17.415Z,1015.26
2018-05-12T02:55:17.410Z,1015.27
2018-05-12T02:56:17.407Z,1015.26
2018-05-12T02:57:17.410Z,1015.25
2018-05-12T02:58:17.403Z,1015.25
2018-05-12T02:59:17.397Z,1015.25
2018-05-12T03:00:17.395Z,1015.23
2018-05-12T03:01:17.392Z,1015.22
2018-05-12T03:02:17.392Z,1015.24
2018-05-12T03:03:17.386Z,1015.21
2018-05-12T03:04:17.381Z,1015.21
2018-05-12T03:05:17.385Z,1015.20
2018-05-12T03:06:17.377Z,1015.20
2018-05-12T03:07:17.373Z,1015.19
2018-05-12T03:08:17.370Z,1015.19
2018-05-12T03:09:17.369Z,1015.22
2018-05-12T03:10:17.365Z,1015.21
2018-05-12T03:11:17.360Z,1015.22
2018-05-12T03:12:17.357Z,1015.23
2018-05-12T03:13:17.353Z,1015.22
2018-05-12T03:14:17.351Z,1015.22
2018-05-12T03:15:17.348Z,1015.25
2018-05-12T03:16:17.344Z,1015.27
2018-05-12T03:17:17.341Z,1015.24
2018-05-12T03:18:17.338Z,1015.25
2018-05-12T03:19:17.335Z,1015.24
2018-05-12T03:20:17.340Z,1015.24
2018-05-12T03:21:17.330Z,1015.25
2018-05-12T03:22:17.322Z,1015.23
2018-05-12T03:23:17.321Z,1015.26
2018-05-12T03:24:17.320Z,1015.22
2018-05-12T03:25:17.316Z,1015.25
2018-05-12T03:26:17.314Z,1015.20
2018-05-12T03:27:17.312Z,1015.24
2018-05-12T03:28:17.308Z,1015.18
2018-05-12T03:29:17.305Z,1015.23
2018-05-12T03:30:17.392Z,1015.22
2018-05-12T03:31:17.303Z,1015.20
2018-05-12T03:32:17.297Z,1015.23
2018-05-12T03:33:17.294Z,1015.23
2018-05-12T03:34:17.294Z,1015.24
2018-05-12T03:35:17.288Z,1015.28
2018-05-12T03:36:17.281Z,1015.27
2018-05-12T03:37:17.284Z,1015.25
2018-05-12T03:38:17.284Z,1015.26
2018-05-12T03:39:17.280Z,1015.26
2018-05-12T03:40:17.279Z,1015.27
2018-05-12T03:41:17.276Z,1015.27
2018-05-12T03:42:17.267Z,1015.29
2018-05-12T03:43:17.266Z,1015.26
2018-05-12T03:44:17.262Z,1015.26
2018-05-12T03:45:17.260Z,1015.26
2018-05-12T03:46:17.260Z,1015.28
2018-05-12T03:47:17.251Z,1015.24
2018-05-12T03:48:17.255Z,1015.24
2018-05-12T03:49:17.250Z,1015.24
2018-05-12T03:50:17.245Z,1015.24
2018-05-12T03:51:17.243Z,1015.20
2018-05-12T03:52:17.243Z,1015.22
2018-05-12T03:53:17.238Z,1015.19
2018-05-12T03:54:17.237Z,1015.21
2018-05-12T03:55:17.232Z,1015.21
2018-05-12T03:56:17.234Z,1015.20
2018-05-12T03:57:17.231Z,1015.21
2018-05-12T03:58:17.226Z,1015.25
2018-05-12T03:59:17.226Z,1015.25
2018-05-12T04:00:17.224Z,1015.26
2018-05-12T04:01:17.226Z,1015.25
2018-05-12T04:02:17.217Z,1015.23
2018-05-12T04:03:17.211Z,1015.26
2018-05-12T04:04:17.210Z,1015.23
2018-05-12T04:05:17.205Z,1015.24
2018-05-12T04:06:17.204Z,1015.25
2018-05-12T04:07:17.201Z,1015.19
2018-05-12T04:08:17.199Z,1015.19
2018-05-12T04:09:17.197Z,1015.20
2018-05-12T04:10:17.195Z,1015.17
2018-05-12T04:11:17.194Z,1015.18
2018-05-12T04:12:17.185Z,1015.19
2018-05-12T04:13:17.185Z,1015.19
2018-05-12T04:14:17.182Z,1015.17
2018-05-12T04:15:17.181Z,1015.19
2018-05-12T04:16:17.177Z,1015.19
2018-05-12T04:17:17.175Z,1015.18
2018-05-12T04:18:17.176Z,1015.19
2018-05-12T04:19:17.171Z,1015.18
2018-05-12T04:20:17.171Z,1015.19
2018-05-12T04:21:17.164Z,1015.18
2018-05-12T04:22:17.162Z,1015.19
2018-05-12T04:23:17.164Z,1015.19
2018-05-12T04:24:17.173Z,1015.23
2018-05-12T04:25:17.156Z,1015.22
2018-05-12T04:26:17.153Z,1015.21
2018-05-12T04:27:17.149Z,1015.21
2018-05-12T04:28:17.146Z,1015.23
2018-05-12T04:29:17.148Z,1015.24
2018-05-12T04:30:17.142Z,1015.21
2018-05-12T04:31:17.139Z,1015.19
2018-05-12T04:32:17.135Z,1015.22
2018-05-12T04:33:17.136Z,1015.21
2018-05-12T04:34:17.129Z,1015.23
2018-05-12T04:35:17.127Z,1015.23
2018-05-12T04:36:17.122Z,1015.23
2018-05-12T04:37:17.128Z,1015.23
2018-05-12T04:38:17.119Z,1015.21
2018-05-12T04:39:17.116Z,1015.24
2018-05-12T04:40:17.115Z,1015.20
2018-05-12T04:41:17.112Z,1015.21
2018-05-12T04:42:17.109Z,1015.19
2018-05-12T04:43:17.157Z,1015.18
2018-05-12T04:44:17.104Z,1015.16
2018-05-12T04:45:17.101Z,1015.15
2018-05-12T04:46:17.099Z,1015.18
2018-05-12T04:47:17.097Z,1015.16
2018-05-12T04:48:17.098Z,1015.17
2018-05-12T04:49:17.096Z,1015.18
2018-05-12T04:50:17.090Z,1015.18
2018-05-12T04:51:17.087Z,1015.22
2018-05-12T04:52:17.086Z,1015.19
2018-05-12T04:53:17.082Z,1015.15
2018-05-12T04:54:17.138Z,1015.11
2018-05-12T04:55:17.079Z,1015.13
2018-05-12T04:56:17.073Z,1015.12
2018-05-12T04:57:17.074Z,1015.09
2018-05-12T04:58:17.071Z,1015.10
2018-05-12T04:59:17.068Z,1015.08
2018-05-12T05:00:17.067Z,1015.07
2018-05-12T05:01:17.068Z,1015.09
2018-05-12T05:02:17.064Z,1015.11
2018-05-12T05:03:17.062Z,1015.10
2018-05-12T05:04:17.060Z,1015.10
2018-05-12T05:05:17.066Z,1015.11
2018-05-12T05:06:17.057Z,1015.10
2018-05-12T05:07:17.052Z,1015.07
2018-05-12T05:08:17.097Z,1015.03
2018-05-12T05:09:17.052Z,1015.06
2018-05-12T05:10:17.049Z,1015.08
2018-05-12T05:11:17.047Z,1015.07
2018-05-12T05:12:17.047Z,1015.11
2018-05-12T05:13:17.052Z,1015.08
2018-05-12T05:14:17.045Z,1015.11
2018-05-12T05:15:17.074Z,1015.13
2018-05-12T05:16:17.043Z,1015.14
2018-05-12T05:17:17.041Z,1015.15
2018-05-12T05:18:17.042Z,1015.11
2018-05-12T05:19:17.042Z,1015.15
2018-05-12T05:20:17.036Z,1015.16
2018-05-12T05:21:17.140Z,1015.10
2018-05-12T05:22:17.036Z,1015.11
2018-05-12T05:23:17.035Z,1015.13
2018-05-12T05:24:17.035Z,1015.08
2018-05-12T05:25:17.042Z,1015.13
2018-05-12T05:26:17.034Z,1015.11
2018-05-12T05:27:17.032Z,1015.12
2018-05-12T05:28:17.033Z,1015.11
2018-05-12T05:29:17.033Z,1015.14
2018-05-12T05:30:17.033Z,1015.11
2018-05-12T05:31:17.032Z,1015.14
2018-05-12T05:32:17.032Z,1015.16
2018-05-12T05:33:17.032Z,1015.16
2018-05-12T05:34:17.032Z,1015.20
2018-05-12T05:35:17.068Z,1015.23
2018-05-12T05:36:17.039Z,1015.24
2018-05-12T05:37:17.033Z,1015.24
2018-05-12T05:38:17.033Z,1015.27
2018-05-12T05:39:17.034Z,1015.24
2018-05-12T05:40:17.036Z,1015.31
2018-05-12T05:41:17.038Z,1015.30
2018-05-12T05:42:17.038Z,1015.35
2018-05-12T05:43:17.035Z,1015.34
2018-05-12T05:44:17.035Z,1015.36
2018-05-12T05:45:17.040Z,1015.36
2018-05-12T05:46:17.037Z,1015.36
2018-05-12T05:47:17.038Z,1015.36
2018-05-12T05:48:17.040Z,1015.35
2018-05-12T05:49:17.042Z,1015.37
2018-05-12T05:50:17.055Z,1015.33
2018-05-12T05:51:17.042Z,1015.39
2018-05-12T05:52:17.049Z,1015.38
2018-05-12T05:53:17.046Z,1015.38
2018-05-12T05:54:17.046Z,1015.37
2018-05-12T05:55:17.047Z,1015.41
2018-05-12T05:56:17.048Z,1015.39
2018-05-12T05:57:17.049Z,1015.37
2018-05-12T05:58:17.060Z,1015.41
2018-05-12T05:59:17.073Z,1015.43
2018-05-12T06:00:17.052Z,1015.43
2018-05-12T06:01:17.056Z,1015.45
2018-05-12T06:02:17.053Z,1015.43
2018-05-12T06:03:17.056Z,1015.46
2018-05-12T06:04:17.056Z,1015.45
2018-05-12T06:05:17.057Z,1015.45
2018-05-12T06:06:17.066Z,1015.48
2018-05-12T06:07:17.061Z,1015.49
2018-05-12T06:08:17.062Z,1015.48
2018-05-12T06:09:17.063Z,1015.49
2018-05-12T06:10:17.067Z,1015.50
2018-05-12T06:11:17.064Z,1015.49
2018-05-12T06:12:17.069Z,1015.48
2018-05-12T06:13:17.070Z,1015.51
2018-05-12T06:14:17.071Z,1015.52
2018-05-12T06:15:17.073Z,1015.57
2018-05-12T06:16:17.074Z,1015.49
2018-05-12T06:17:17.085Z,1015.52
2018-05-12T06:18:17.078Z,1015.55
2018-05-12T06:19:17.078Z,1015.57
2018-05-12T06:20:17.081Z,1015.53
2018-05-12T06:21:17.085Z,1015.49
2018-05-12T06:22:17.086Z,1015.52
2018-05-12T06:23:17.095Z,1015.51
2018-05-12T06:24:17.100Z,1015.49
2018-05-12T06:25:17.095Z,1015.49
2018-05-12T06:26:17.091Z,1015.45
2018-05-12T06:27:17.097Z,1015.50
2018-05-12T06:28:17.100Z,1015.50
2018-05-12T06:29:17.101Z,1015.51
2018-05-12T06:30:17.106Z,1015.54
2018-05-12T06:31:17.107Z,1015.53
2018-05-12T06:32:17.109Z,1015.55
2018-05-12T06:33:17.113Z,1015.54
2018-05-12T06:34:17.115Z,1015.55
2018-05-12T06:35:17.119Z,1015.53
2018-05-12T06:36:17.131Z,1015.53
2018-05-12T06:37:17.128Z,1015.52
2018-05-12T06:38:17.129Z,1015.51
2018-05-12T06:39:17.136Z,1015.50
2018-05-12T06:40:17.136Z,1015.47
2018-05-12T06:41:17.138Z,1015.43
2018-05-12T06:42:17.147Z,1015.51
2018-05-12T06:43:17.146Z,1015.49
2018-05-12T06:44:17.143Z,1015.44
2018-05-12T06:45:17.151Z,1015.43
2018-05-12T06:46:17.155Z,1015.47
2018-05-12T06:47:17.160Z,1015.45
2018-05-12T06:48:17.167Z,1015.44
2018-05-12T06:49:17.165Z,1015.47
2018-05-12T06:50:17.169Z,1015.50
2018-05-12T06:51:17.175Z,1015.53
2018-05-12T06:52:17.176Z,1015.50
2018-05-12T06:53:17.180Z,1015.50
2018-05-12T06:54:17.184Z,1015.52
2018-05-12T06:55:17.187Z,1015.53
2018-05-12T06:56:17.189Z,1015.51
2018-05-12T06:57:17.196Z,1015.52
2018-05-12T06:58:17.202Z,1015.57
2018-05-12T06:59:17.204Z,1015.56
2018-05-12T07:00:17.214Z,1015.49
2018-05-12T07:01:17.244Z,1015.51
2018-05-12T07:02:17.212Z,1015.54
2018-05-12T07:03:17.223Z,1015.48
2018-05-12T07:04:17.226Z,1015.48
2018-05-12T07:05:17.225Z,1015.51
2018-05-12T07:06:17.229Z,1015.46
2018-05-12T07:07:17.233Z,1015.48
2018-05-12T07:08:17.240Z,1015.50
2018-05-12T07:09:17.241Z,1015.52
2018-05-12T07:10:17.247Z,1015.50
2018-05-12T07:11:17.249Z,1015.53
2018-05-12T07:12:17.300Z,1015.52
2018-05-12T07:13:17.258Z,1015.54
2018-05-12T07:14:17.269Z,1015.48
2018-05-12T07:15:17.267Z,1015.53
2018-05-12T07:16:17.272Z,1015.53
2018-05-12T07:17:17.280Z,1015.51
2018-05-12T07:18:17.285Z,1015.54
2018-05-12T07:19:17.286Z,1015.47
2018-05-12T07:20:17.289Z,1015.46
2018-05-12T07:21:17.294Z,1015.51
2018-05-12T07:22:17.301Z,1015.44
2018-05-12T07:23:17.306Z,1015.43
2018-05-12T07:24:17.307Z,1015.43
2018-05-12T07:25:17.313Z,1015.47
2018-05-12T07:26:17.321Z,1015.50
2018-05-12T07:27:17.322Z,1015.49
2018-05-12T07:28:17.325Z,1015.47
2018-05-12T07:29:17.335Z,1015.46
2018-05-12T07:30:17.335Z,1015.55
2018-05-12T07:31:17.336Z,1015.57
2018-05-12T07:32:17.343Z,1015.58
2018-05-12T07:33:17.346Z,1015.59
2018-05-12T07:34:17.352Z,1015.57
2018-05-12T07:35:17.355Z,1015.50
2018-05-12T07:36:17.361Z,1015.51
2018-05-12T07:37:17.369Z,1015.51
2018-05-12T07:38:17.374Z,1015.50
2018-05-12T07:39:17.376Z,1015.52
2018-05-12T07:40:17.382Z,1015.47
2018-05-12T07:41:17.386Z,1015.48
2018-05-12T07:42:17.392Z,1015.50
2018-05-12T07:43:17.394Z,1015.51
2018-05-12T07:44:17.401Z,1015.51
2018-05-12T07:45:17.405Z,1015.53
2018-05-12T07:46:17.410Z,1015.53
2018-05-12T07:47:17.416Z,1015.53
2018-05-12T07:48:17.420Z,1015.51
2018-05-12T07:49:17.426Z,1015.53
2018-05-12T07:50:17.431Z,1015.52
2018-05-12T07:51:17.432Z,1015.53
2018-05-12T07:52:17.449Z,1015.53
2018-05-12T07:53:17.451Z,1015.51
2018-05-12T07:54:17.461Z,1015.51
2018-05-12T07:55:17.462Z,1015.52
2018-05-12T07:56:17.476Z,1015.48
2018-05-12T07:57:17.475Z,1015.52
2018-05-12T07:58:17.486Z,1015.50
2018-05-12T07:59:17.484Z,1015.47
2018-05-12T08:00:17.492Z,1015.46
2018-05-12T08:01:17.497Z,1015.48
2018-05-12T08:02:17.504Z,1015.50
2018-05-12T08:03:17.509Z,1015.51
2018-05-12T08:04:17.516Z,1015.44
2018-05-12T08:05:17.522Z,1015.40
2018-05-12T08:06:17.527Z,1015.45
2018-05-12T08:07:17.539Z,1015.53
2018-05-12T08:08:17.539Z,1015.53
2018-05-12T08:09:17.542Z,1015.53
2018-05-12T08:10:17.551Z,1015.55
2018-05-12T08:11:17.554Z,1015.50
2018-05-12T08:12:17.560Z,1015.51
2018-05-12T08:13:17.566Z,1015.51
2018-05-12T08:14:17.572Z,1015.53
2018-05-12T08:15:17.578Z,1015.50
2018-05-12T08:16:17.584Z,1015.47
2018-05-12T08:17:17.590Z,1015.46
2018-05-12T08:18:17.596Z,1015.49
2018-05-12T08:19:17.602Z,1015.38
2018-05-12T08:20:17.609Z,1015.38
2018-05-12T08:21:17.615Z,1015.44
2018-05-12T08:22:17.685Z,1015.46
2018-05-12T08:23:17.621Z,1015.47
2018-05-12T08:24:17.635Z,1015.48
2018-05-12T08:25:17.635Z,1015.55
2018-05-12T08:26:17.639Z,1015.54
2018-05-12T08:27:17.649Z,1015.59
2018-05-12T08:28:17.649Z,1015.47
2018-05-12T08:29:17.661Z,1015.54
2018-05-12T08:30:17.662Z,1015.50
2018-05-12T08:31:17.666Z,1015.40
2018-05-12T08:32:17.672Z,1015.41
2018-05-12T08:33:17.679Z,1015.44
2018-05-12T08:34:17.684Z,1015.43
2018-05-12T08:35:17.695Z,1015.40
2018-05-12T08:36:17.697Z,1015.37
2018-05-12T08:37:17.704Z,1015.41
2018-05-12T08:38:17.712Z,1015.38
2018-05-12T08:39:17.714Z,1015.35
2018-05-12T08:40:17.753Z,1015.34
2018-05-12T08:41:17.725Z,1015.47
2018-05-12T08:42:17.730Z,1015.30
2018-05-12T08:43:17.737Z,1015.27
2018-05-12T08:44:17.742Z,1015.28
2018-05-12T08:45:17.746Z,1015.26
2018-05-12T08:46:17.753Z,1015.22
2018-05-12T08:47:17.758Z,1015.26
2018-05-12T08:48:17.772Z,1015.27
2018-05-12T08:49:17.768Z,1015.21
2018-05-12T08:50:17.776Z,1015.20
2018-05-12T08:51:17.778Z,1015.26
2018-05-12T08:52:17.783Z,1015.19
2018-05-12T08:53:17.790Z,1015.28
2018-05-12T08:54:17.795Z,1015.21
2018-05-12T08:55:17.899Z,1015.15
2018-05-12T08:56:17.804Z,1015.13
2018-05-12T08:57:17.808Z,1015.13
2018-05-12T08:58:17.814Z,1015.14
2018-05-12T08:59:17.816Z,1015.18
2018-05-12T09:00:17.822Z,1015.17
2018-05-12T09:01:17.826Z,1015.12
2018-05-12T09:02:17.833Z,1015.10
2018-05-12T09:03:17.834Z,1015.11
2018-05-12T09:04:17.837Z,1015.10
2018-05-12T09:05:17.842Z,1015.12
2018-05-12T09:06:17.846Z,1015.09
2018-05-12T09:07:17.900Z,1015.09
2018-05-12T09:08:17.855Z,1015.06
2018-05-12T09:09:17.860Z,1015.09
2018-05-12T09:10:17.866Z,1015.08
2018-05-12T09:11:17.872Z,1015.06
2018-05-12T09:12:17.870Z,1015.03
2018-05-12T09:13:17.873Z,1015.08
2018-05-12T09:14:17.878Z,1015.05
2018-05-12T09:15:17.880Z,1015.09
2018-05-12T09:16:17.882Z,1015.12
2018-05-12T09:17:17.887Z,1015.11
2018-05-12T09:18:17.897Z,1015.11
2018-05-12T09:19:17.922Z,1015.12
2018-05-12T09:20:17.900Z,1015.14
2018-05-12T09:21:17.901Z,1015.15
2018-05-12T09:22:17.906Z,1015.14
2018-05-12T09:23:17.909Z,1015.13
2018-05-12T09:24:17.913Z,1015.11
2018-05-12T09:25:17.917Z,1015.09
2018-05-12T09:26:17.920Z,1015.10
2018-05-12T09:27:17.923Z,1015.09
2018-05-12T09:28:17.929Z,1015.07
2018-05-12T09:29:17.935Z,1015.03
2018-05-12T09:30:17.943Z,1015.02
2018-05-12T09:31:17.940Z,1015.03
2018-05-12T09:32:17.944Z,1015.04
2018-05-12T09:33:17.948Z,1015.02
2018-05-12T09:34:17.952Z,1015.01
2018-05-12T09:35:17.957Z,1015.03
2018-05-12T09:36:17.960Z,1015.05
2018-05-12T09:37:18.003Z,1015.08
2018-05-12T09:38:17.967Z,1015.07
2018-05-12T09:39:17.970Z,1015.04
2018-05-12T09:40:17.991Z,1015.05
2018-05-12T09:41:17.979Z,1015.06
2018-05-12T09:42:18.037Z,1015.05
2018-05-12T09:43:18.017Z,1014.98
2018-05-12T09:44:17.991Z,1015.00
2018-05-12T09:45:17.999Z,1014.96
2018-05-12T09:46:17.999Z,1014.94
2018-05-12T09:47:18.013Z,1014.97
2018-05-12T09:48:18.010Z,1014.97
2018-05-12T09:49:18.008Z,1014.95
2018-05-12T09:50:18.013Z,1014.98
2018-05-12T09:51:18.019Z,1014.98
2018-05-12T09:52:18.026Z,1014.97
2018-05-12T09:53:18.021Z,1014.93
2018-05-12T09:54:18.027Z,1014.86
2018-05-12T09:55:18.035Z,1014.89
2018-05-12T09:56:18.038Z,1014.89
2018-05-12T09:57:18.039Z,1014.92
2018-05-12T09:58:18.042Z,1014.89
2018-05-12T09:59:18.045Z,1014.95
2018-05-12T10:00:18.048Z,1014.94
2018-05-12T10:01:18.053Z,1014.95
2018-05-12T10:02:18.055Z,1014.94
2018-05-12T10:03:18.064Z,1014.91
2018-05-12T10:04:18.064Z,1014.92
2018-05-12T10:05:18.070Z,1014.91
2018-05-12T10:06:18.069Z,1014.94
2018-05-12T10:07:18.070Z,1014.96
2018-05-12T10:08:18.076Z,1014.95
2018-05-12T10:09:18.079Z,1014.92
2018-05-12T10:10:18.086Z,1014.96
2018-05-12T10:11:18.096Z,1014.96
2018-05-12T10:12:18.088Z,1014.90
2018-05-12T10:13:18.092Z,1014.93
2018-05-12T10:14:18.092Z,1014.90
2018-05-12T10:15:18.097Z,1014.89
2018-05-12T10:16:18.100Z,1014.87
2018-05-12T10:17:18.110Z,1014.85
2018-05-12T10:18:18.110Z,1014.81
2018-05-12T10:19:18.141Z,1014.81
2018-05-12T10:20:18.118Z,1014.78
2018-05-12T10:21:18.118Z,1014.80
2018-05-12T10:22:18.121Z,1014.79
2018-05-12T10:23:18.121Z,1014.82
2018-05-12T10:24:18.127Z,1014.82
2018-05-12T10:25:18.133Z,1014.77
2018-05-12T10:26:18.149Z,1014.80
2018-05-12T10:27:18.140Z,1014.80
2018-05-12T10:28:18.145Z,1014.80
2018-05-12T10:29:18.143Z,1014.85
2018-05-12T10:30:18.147Z,1014.84
2018-05-12T10:31:18.148Z,1014.84
2018-05-12T10:32:18.157Z,1014.83
2018-05-12T10:33:18.154Z,1014.80
2018-05-12T10:34:18.160Z,1014.77
2018-05-12T10:35:18.163Z,1014.77
2018-05-12T10:36:18.165Z,1014.74
2018-05-12T10:37:18.168Z,1014.76
2018-05-12T10:38:18.175Z,1014.78
2018-05-12T10:39:18.175Z,1014.77
2018-05-12T10:40:18.180Z,1014.67
2018-05-12T10:41:18.183Z,1014.70
2018-05-12T10:42:18.187Z,1014.68
2018-05-12T10:43:18.189Z,1014.69
2018-05-12T10:44:18.195Z,1014.71
2018-05-12T10:45:18.266Z,1014.72
2018-05-12T10:46:18.207Z,1014.75
2018-05-12T10:47:18.204Z,1014.75
2018-05-12T10:48:18.206Z,1014.66
2018-05-12T10:49:18.210Z,1014.67
2018-05-12T10:50:18.218Z,1014.68
2018-05-12T10:51:18.217Z,1014.69
2018-05-12T10:52:18.219Z,1014.70
2018-05-12T10:53:18.226Z,1014.69
2018-05-12T10:54:18.228Z,1014.67
2018-05-12T10:55:18.229Z,1014.69
2018-05-12T10:56:18.233Z,1014.61
2018-05-12T10:57:18.237Z,1014.64
2018-05-12T10:58:18.243Z,1014.65
2018-05-12T10:59:18.241Z,1014.58
2018-05-12T11:00:18.249Z,1014.56
2018-05-12T11:01:18.250Z,1014.56
2018-05-12T11:02:18.255Z,1014.56
2018-05-12T11:03:18.256Z,1014.57
2018-05-12T11:04:18.260Z,1014.54
2018-05-12T11:05:18.265Z,1014.55
2018-05-12T11:06:18.261Z,1014.57
2018-05-12T11:07:18.268Z,1014.54
2018-05-12T11:08:18.272Z,1014.53
2018-05-12T11:09:18.277Z,1014.57
2018-05-12T11:10:18.282Z,1014.58
2018-05-12T11:11:18.284Z,1014.56
2018-05-12T11:12:18.286Z,1014.53
2018-05-12T11:13:18.292Z,1014.51
2018-05-12T11:14:18.293Z,1014.48
2018-05-12T11:15:18.295Z,1014.44
2018-05-12T11:16:18.297Z,1014.41
2018-05-12T11:17:18.310Z,1014.41
2018-05-12T11:18:18.307Z,1014.41
2018-05-12T11:19:18.309Z,1014.39
2018-05-12T11:20:18.396Z,1014.38
2018-05-12T11:21:18.326Z,1014.41
2018-05-12T11:22:18.323Z,1014.38
2018-05-12T11:23:18.325Z,1014.34
2018-05-12T11:24:18.328Z,1014.34
2018-05-12T11:25:18.328Z,1014.34
2018-05-12T11:26:18.344Z,1014.36
2018-05-12T11:27:18.341Z,1014.35
2018-05-12T11:28:18.343Z,1014.33
2018-05-12T11:29:18.348Z,1014.36
2018-05-12T11:30:18.352Z,1014.34
2018-05-12T11:31:18.355Z,1014.36
2018-05-12T11:32:18.376Z,1014.32
2018-05-12T11:33:18.362Z,1014.32
2018-05-12T11:34:18.369Z,1014.32
2018-05-12T11:35:18.374Z,1014.28
2018-05-12T11:36:18.379Z,1014.29
2018-05-12T11:37:18.379Z,1014.31
2018-05-12T11:38:18.382Z,1014.33
2018-05-12T11:39:18.384Z,1014.35
2018-05-12T11:40:18.394Z,1014.33
2018-05-12T11:41:18.398Z,1014.34
2018-05-12T11:42:18.407Z,1014.33
2018-05-12T11:43:18.404Z,1014.29
2018-05-12T11:44:18.406Z,1014.29
2018-05-12T11:45:18.408Z,1014.30
2018-05-12T11:46:18.416Z,1014.20
2018-05-12T11:47:18.419Z,1014.24
2018-05-12T11:48:18.424Z,1014.23
2018-05-12T11:49:18.424Z,1014.24
2018-05-12T11:50:18.430Z,1014.20
2018-05-12T11:51:18.442Z,1014.17
2018-05-12T11:52:18.443Z,1014.17
2018-05-12T11:53:18.440Z,1014.20
2018-05-12T11:54:18.445Z,1014.14
2018-05-12T11:55:18.455Z,1014.10
2018-05-12T11:56:18.460Z,1014.11
2018-05-12T11:57:18.458Z,1014.10
2018-05-12T11:58:18.481Z,1014.12
2018-05-12T11:59:18.461Z,1014.10
2018-05-12T12:00:18.467Z,1014.11
2018-05-12T12:01:18.476Z,1014.13
2018-05-12T12:02:18.475Z,1014.07
2018-05-12T12:03:18.495Z,1014.11
2018-05-12T12:04:18.482Z,1014.12
2018-05-12T12:05:18.486Z,1014.10